CYN6 weather

Gravenhurst/Muskoka Bay Seaplane Base
Gravenhurst, Ontario, Canada

Public forecast

Using degrees Celsius for public forecast. Weather courtesy of forecast.io.

Closest aviation weather report (METAR) to Gravenhurst/Muskoka Bay Seaplane Base

Closest report is Muskoka Airport, 4.7 nm (8.7 km) ENE. Retrieved 2019/10/15 21:00 UTC (11 minutes ago):

CYQA 152100Z AUTO 12004KT 9SM FEW085 SCT160 SCT180 11/03 A2996 RMK SLP152

Closest aviation forecast (TAF) to Gravenhurst/Muskoka Bay Seaplane Base

Closest forecast is Muskoka Airport, 4.7 nm (8.7 km) ENE. Retrieved 2019/10/15 20:00 UTC (1 hour ago):

TAF CYQA 151941Z 1520/1602 14008KT P6SM SCT150 BKN190 RMK FCST BASED ON AUTO OBS NXT FCST WILL BE ISSUED AT 161145Z